Time,TemperatureF,DewpointF,PressureIn,WindDirection,WindDirectionDegrees,WindSpeedMPH,WindSpeedGustMPH,Humidity,HourlyPrecipIn,Conditions,Clouds,dailyrainin,SoftwareType,DateUTC
2013-05-24 00:01:00,47.5,44.8,29.96,North,0,0.0,0.0,90,0.00,,,0.00,WUHU216HW,2013-05-24 07:01:00,
2013-05-24 00:06:00,47.3,44.6,29.96,North,0,0.0,0.2,90,0.00,,,0.00,WUHU216HW,2013-05-24 07:06:00,
2013-05-24 00:11:00,47.3,44.6,29.96,NNW,338,0.0,0.2,90,0.00,,,0.00,WUHU216HW,2013-05-24 07:11:00,
2013-05-24 00:16:00,47.3,44.6,29.95,SW,225,0.0,0.4,90,0.00,,,0.00,WUHU216HW,2013-05-24 07:16:00,
2013-05-24 00:21:00,47.3,44.6,29.95,SW,225,0.4,0.7,90,0.00,,,0.00,WUHU216HW,2013-05-24 07:21:00,
2013-05-24 00:26:00,47.5,44.8,29.95,SW,225,0.9,0.9,90,0.00,,,0.00,WUHU216HW,2013-05-24 07:26:00,
2013-05-24 00:31:00,47.3,44.6,29.95,SW,225,0.0,0.9,90,0.00,,,0.00,WUHU216HW,2013-05-24 07:31:00,
2013-05-24 00:36:00,47.3,44.6,29.95,SW,225,0.0,0.4,90,0.00,,,0.00,WUHU216HW,2013-05-24 07:36:00,
2013-05-24 00:41:00,47.3,44.6,29.96,SW,225,0.0,0.0,90,0.00,,,0.00,WUHU216HW,2013-05-24 07:41:00,
2013-05-24 00:46:00,47.2,44.5,29.95,SW,225,0.0,0.0,90,0.00,,,0.00,WUHU216HW,2013-05-24 07:46:00,
2013-05-24 00:51:00,47.2,44.5,29.95,SW,225,0.0,0.0,90,0.00,,,0.00,WUHU216HW,2013-05-24 07:51:00,
2013-05-24 00:56:00,47.2,44.5,29.95,SW,225,0.2,0.2,90,0.00,,,0.00,WUHU216HW,2013-05-24 07:56:00,
2013-05-24 01:01:00,47.2,44.5,29.95,SW,225,0.0,0.2,90,0.00,,,0.00,WUHU216HW,2013-05-24 08:01:00,
2013-05-24 01:06:00,47.2,44.5,29.95,SW,225,0.0,0.2,90,0.00,,,0.00,WUHU216HW,2013-05-24 08:06:00,
2013-05-24 01:11:00,47.2,44.5,29.95,SW,225,0.0,0.0,90,0.00,,,0.00,WUHU216HW,2013-05-24 08:11:00,
2013-05-24 01:16:00,47.2,44.5,29.95,SW,225,0.0,0.0,90,0.00,,,0.00,WUHU216HW,2013-05-24 08:16:00,
2013-05-24 01:21:00,47.0,44.3,29.95,SW,225,0.0,0.0,90,0.00,,,0.00,WUHU216HW,2013-05-24 08:21:00,
2013-05-24 01:26:00,47.2,44.5,29.95,North,0,0.0,0.4,90,0.00,,,0.00,WUHU216HW,2013-05-24 08:26:00,
2013-05-24 01:31:00,47.0,44.3,29.95,North,0,0.2,0.7,90,0.00,,,0.00,WUHU216HW,2013-05-24 08:31:00,
2013-05-24 01:36:00,46.8,44.4,29.95,NE,45,0.0,0.7,91,0.00,,,0.00,WUHU216HW,2013-05-24 08:36:00,
2013-05-24 01:41:00,46.8,44.4,29.95,NE,45,0.0,0.4,91,0.00,,,0.00,WUHU216HW,2013-05-24 08:41:00,
2013-05-24 01:46:00,46.8,44.4,29.95,NNE,23,0.0,0.2,91,0.00,,,0.00,WUHU216HW,2013-05-24 08:46:00,
2013-05-24 01:51:00,46.8,44.4,29.95,NE,45,0.2,0.9,91,0.00,,,0.00,WUHU216HW,2013-05-24 08:51:00,
2013-05-24 01:56:00,46.8,44.4,29.95,NE,45,0.0,0.9,91,0.00,,,0.00,WUHU216HW,2013-05-24 08:56:00,
2013-05-24 02:01:00,46.8,44.4,29.95,NE,45,0.0,0.9,91,0.00,,,0.00,WUHU216HW,2013-05-24 09:01:00,
2013-05-24 02:06:00,46.8,44.4,29.95,NE,45,0.0,0.2,91,0.00,,,0.00,WUHU216HW,2013-05-24 09:06:00,
2013-05-24 02:11:00,46.8,44.4,29.95,NE,45,0.0,0.2,91,0.00,,,0.00,WUHU216HW,2013-05-24 09:11:00,
2013-05-24 02:16:00,46.8,44.4,29.95,NE,45,0.0,0.2,91,0.00,,,0.00,WUHU216HW,2013-05-24 09:16:00,
2013-05-24 02:21:00,46.8,44.4,29.95,NE,45,0.0,0.2,91,0.00,,,0.00,WUHU216HW,2013-05-24 09:21:00,
2013-05-24 02:26:00,46.8,44.4,29.95,NE,45,0.0,0.0,91,0.00,,,0.00,WUHU216HW,2013-05-24 09:26:00,
2013-05-24 02:31:00,46.6,44.2,29.95,SW,225,0.0,0.7,91,0.00,,,0.00,WUHU216HW,2013-05-24 09:31:00,
2013-05-24 02:36:00,46.6,44.2,29.95,WSW,248,0.4,0.9,91,0.00,,,0.00,WUHU216HW,2013-05-24 09:36:00,
2013-05-24 02:41:00,46.4,44.0,29.95,SW,225,0.0,0.9,91,0.00,,,0.00,WUHU216HW,2013-05-24 09:41:00,
2013-05-24 02:46:00,46.4,44.0,29.95,WSW,248,0.4,0.9,91,0.00,,,0.00,WUHU216HW,2013-05-24 09:46:00,
2013-05-24 02:51:00,46.3,43.8,29.95,WSW,248,0.4,0.9,91,0.00,,,0.00,WUHU216HW,2013-05-24 09:51:00,
2013-05-24 02:56:00,46.3,43.8,29.95,WSW,248,0.4,0.4,91,0.00,,,0.00,WUHU216HW,2013-05-24 09:56:00,
2013-05-24 03:01:00,46.1,43.7,29.95,SW,225,0.4,0.4,91,0.00,,,0.00,WUHU216HW,2013-05-24 10:01:00,
2013-05-24 03:06:00,45.9,43.5,29.95,WSW,248,0.7,0.9,91,0.00,,,0.00,WUHU216HW,2013-05-24 10:06:00,
2013-05-24 03:11:00,45.9,43.5,29.95,SW,225,0.7,0.9,91,0.00,,,0.00,WUHU216HW,2013-05-24 10:11:00,
2013-05-24 03:16:00,45.7,43.3,29.94,WSW,248,0.2,0.9,91,0.00,,,0.00,WUHU216HW,2013-05-24 10:16:00,
2013-05-24 03:21:00,45.7,43.3,29.94,WSW,248,0.4,0.7,91,0.00,,,0.00,WUHU216HW,2013-05-24 10:21:00,
2013-05-24 03:26:00,45.5,43.1,29.94,WSW,248,0.0,0.4,91,0.00,,,0.00,WUHU216HW,2013-05-24 10:26:00,
2013-05-24 03:31:00,45.4,42.9,29.94,WSW,248,0.4,0.4,91,0.00,,,0.00,WUHU216HW,2013-05-24 10:31:00,
2013-05-24 03:36:00,45.4,42.9,29.94,WSW,248,0.2,0.4,91,0.00,,,0.00,WUHU216HW,2013-05-24 10:36:00,
2013-05-24 03:41:00,45.2,42.8,29.95,WSW,248,0.0,0.4,91,0.00,,,0.00,WUHU216HW,2013-05-24 10:41:00,
2013-05-24 03:46:00,45.0,42.6,29.95,SW,225,0.4,0.7,91,0.00,,,0.00,WUHU216HW,2013-05-24 10:46:00,
2013-05-24 03:51:00,45.0,42.6,29.95,WSW,248,0.2,0.7,91,0.00,,,0.00,WUHU216HW,2013-05-24 10:51:00,
2013-05-24 03:56:00,45.0,42.6,29.94,WSW,248,1.1,1.1,91,0.00,,,0.00,WUHU216HW,2013-05-24 10:56:00,
2013-05-24 04:01:00,45.0,42.6,29.94,WSW,248,0.4,1.1,91,0.00,,,0.00,WUHU216HW,2013-05-24 11:01:00,
2013-05-24 04:06:00,44.8,42.4,29.95,WSW,248,0.0,1.1,91,0.00,,,0.00,WUHU216HW,2013-05-24 11:06:00,
2013-05-24 04:11:00,44.8,42.4,29.94,WSW,248,0.0,0.7,91,0.00,,,0.00,WUHU216HW,2013-05-24 11:11:00,
2013-05-24 04:16:00,44.8,42.4,29.95,WSW,248,0.0,0.7,91,0.00,,,0.00,WUHU216HW,2013-05-24 11:16:00,
2013-05-24 04:21:00,44.8,42.4,29.95,WSW,248,0.4,0.7,91,0.00,,,0.00,WUHU216HW,2013-05-24 11:21:00,
2013-05-24 04:26:00,44.8,42.4,29.95,WSW,248,0.2,0.7,91,0.00,,,0.00,WUHU216HW,2013-05-24 11:26:00,
2013-05-24 04:31:00,44.8,42.4,29.95,WSW,248,0.4,0.4,91,0.00,,,0.00,WUHU216HW,2013-05-24 11:31:00,
2013-05-24 04:35:00,44.6,42.2,29.95,WSW,248,0.0,0.7,91,0.00,,,0.00,WUHU216HW,2013-05-24 11:35:00,
2013-05-24 04:40:00,44.6,42.2,29.96,WSW,248,0.2,0.7,91,0.00,,,0.00,WUHU216HW,2013-05-24 11:40:00,
2013-05-24 04:45:00,44.6,42.2,29.96,WSW,248,0.4,0.4,91,0.00,,,0.00,WUHU216HW,2013-05-24 11:45:00,
2013-05-24 04:50:00,44.6,42.2,29.95,SW,225,0.4,0.9,91,0.00,,,0.00,WUHU216HW,2013-05-24 11:50:00,
2013-05-24 04:55:00,44.8,42.4,29.95,SW,225,0.0,0.9,91,0.00,,,0.00,WUHU216HW,2013-05-24 11:55:00,
2013-05-24 05:00:00,44.8,42.4,29.96,SW,225,0.4,0.9,91,0.00,,,0.00,WUHU216HW,2013-05-24 12:00:00,
2013-05-24 05:05:00,44.6,42.2,29.96,WSW,248,0.7,0.9,91,0.00,,,0.00,WUHU216HW,2013-05-24 12:05:00,
2013-05-24 05:10:00,44.6,42.2,29.96,WSW,248,0.0,0.7,91,0.00,,,0.00,WUHU216HW,2013-05-24 12:10:00,
2013-05-24 05:15:00,44.6,42.2,29.96,SW,225,0.2,0.7,91,0.00,,,0.00,WUHU216HW,2013-05-24 12:15:00,
2013-05-24 05:20:00,44.6,41.9,29.96,WSW,248,0.4,0.7,90,0.00,,,0.00,WUHU216HW,2013-05-24 12:20:00,
2013-05-24 05:25:00,44.5,41.8,29.96,WSW,248,0.0,0.9,90,0.00,,,0.00,WUHU216HW,2013-05-24 12:25:00,
2013-05-24 05:30:00,44.5,41.8,29.96,WSW,248,0.0,0.9,90,0.00,,,0.00,WUHU216HW,2013-05-24 12:30:00,
2013-05-24 05:35:00,44.3,41.6,29.96,WSW,248,0.4,0.7,90,0.00,,,0.00,WUHU216HW,2013-05-24 12:35:00,
2013-05-24 05:40:00,44.5,41.8,29.96,WSW,248,0.9,0.9,90,0.00,,,0.00,WUHU216HW,2013-05-24 12:40:00,
2013-05-24 05:45:00,44.5,41.8,29.96,SW,225,0.4,0.9,90,0.00,,,0.00,WUHU216HW,2013-05-24 12:45:00,
2013-05-24 05:50:00,44.3,41.6,29.96,SW,225,1.1,1.1,90,0.00,,,0.00,WUHU216HW,2013-05-24 12:50:00,
2013-05-24 05:55:00,44.3,41.6,29.96,WSW,248,0.4,1.1,90,0.00,,,0.00,WUHU216HW,2013-05-24 12:55:00,
2013-05-24 06:00:00,44.3,41.6,29.96,WSW,248,0.4,1.1,90,0.00,,,0.00,WUHU216HW,2013-05-24 13:00:00,
2013-05-24 06:05:00,44.3,41.6,29.96,WSW,248,0.4,1.1,90,0.00,,,0.00,WUHU216HW,2013-05-24 13:05:00,
2013-05-24 06:10:00,44.3,41.6,29.97,WSW,248,0.4,1.1,90,0.00,,,0.00,WUHU216HW,2013-05-24 13:10:00,
2013-05-24 06:15:00,44.5,41.8,29.97,WSW,248,0.7,1.3,90,0.00,,,0.00,WUHU216HW,2013-05-24 13:15:00,
2013-05-24 06:20:00,44.8,42.4,29.97,WSW,248,0.9,1.3,91,0.00,,,0.00,WUHU216HW,2013-05-24 13:20:00,
2013-05-24 06:25:00,45.0,42.6,29.97,WSW,248,0.9,0.9,91,0.00,,,0.00,WUHU216HW,2013-05-24 13:25:00,
2013-05-24 06:30:00,45.4,43.2,29.97,SW,225,0.4,1.1,92,0.00,,,0.00,WUHU216HW,2013-05-24 13:30:00,
2013-05-24 06:35:00,45.7,43.3,29.97,SW,225,0.4,1.1,91,0.00,,,0.00,WUHU216HW,2013-05-24 13:35:00,
2013-05-24 06:40:00,45.7,43.3,29.97,SW,225,0.0,0.9,91,0.00,,,0.00,WUHU216HW,2013-05-24 13:40:00,
2013-05-24 06:45:00,45.7,43.3,29.97,SW,225,0.7,0.7,91,0.00,,,0.00,WUHU216HW,2013-05-24 13:45:00,
2013-05-24 06:50:00,45.9,43.5,29.97,SW,225,0.0,0.7,91,0.00,,,0.00,WUHU216HW,2013-05-24 13:50:00,
2013-05-24 06:55:00,46.1,43.7,29.97,SW,225,0.0,0.7,91,0.00,,,0.00,WUHU216HW,2013-05-24 13:55:00,
2013-05-24 07:00:00,46.3,43.8,29.98,SW,225,0.0,0.2,91,0.00,,,0.00,WUHU216HW,2013-05-24 14:00:00,
2013-05-24 07:05:00,46.3,43.8,29.98,SW,225,0.2,0.2,91,0.00,,,0.00,WUHU216HW,2013-05-24 14:05:00,
2013-05-24 07:10:00,46.4,44.0,29.98,SE,135,0.0,0.4,91,0.00,,,0.00,WUHU216HW,2013-05-24 14:10:00,
2013-05-24 07:15:00,46.4,44.0,29.98,SE,135,0.0,0.4,91,0.00,,,0.00,WUHU216HW,2013-05-24 14:15:00,
2013-05-24 07:20:00,46.6,44.2,29.98,SE,135,0.0,0.0,91,0.00,,,0.00,WUHU216HW,2013-05-24 14:20:00,
2013-05-24 07:25:00,46.8,44.4,29.98,SSW,203,0.0,0.4,91,0.00,,,0.00,WUHU216HW,2013-05-24 14:25:00,
2013-05-24 07:30:00,47.0,44.6,29.98,SSW,203,0.0,0.4,91,0.00,,,0.00,WUHU216HW,2013-05-24 14:30:00,
2013-05-24 07:35:00,47.2,44.7,29.98,SSW,203,0.0,0.0,91,0.00,,,0.00,WUHU216HW,2013-05-24 14:35:00,
2013-05-24 07:40:00,47.2,44.7,29.98,SSW,203,0.0,0.0,91,0.00,,,0.00,WUHU216HW,2013-05-24 14:40:00,
2013-05-24 07:45:00,47.3,44.9,29.99,SSW,203,0.4,1.1,91,0.00,,,0.00,WUHU216HW,2013-05-24 14:45:00,
2013-05-24 07:50:00,47.5,45.1,29.99,SSW,203,0.0,1.1,91,0.00,,,0.00,WUHU216HW,2013-05-24 14:50:00,
2013-05-24 07:55:00,47.5,45.1,29.98,SSW,203,0.0,0.9,91,0.00,,,0.00,WUHU216HW,2013-05-24 14:55:00,
2013-05-24 08:00:00,47.7,45.3,29.99,SSW,203,0.0,0.0,91,0.00,,,0.00,WUHU216HW,2013-05-24 15:00:00,
2013-05-24 08:05:00,47.9,45.5,29.99,SSW,203,0.0,0.0,91,0.00,,,0.00,WUHU216HW,2013-05-24 15:05:00,
2013-05-24 08:10:00,48.1,45.6,29.99,West,270,0.0,0.2,91,0.00,,,0.00,WUHU216HW,2013-05-24 15:10:00,
2013-05-24 08:15:00,48.2,45.8,29.99,SW,225,0.4,0.7,91,0.00,,,0.00,WUHU216HW,2013-05-24 15:15:00,
2013-05-24 08:20:00,48.4,46.0,29.99,NW,315,0.0,0.7,91,0.00,,,0.00,WUHU216HW,2013-05-24 15:20:00,
2013-05-24 08:25:00,48.6,46.2,29.99,WSW,248,0.7,0.9,91,0.00,,,0.00,WUHU216HW,2013-05-24 15:25:00,
2013-05-24 08:30:00,48.6,46.2,29.99,WSW,248,0.7,2.5,91,0.00,,,0.00,WUHU216HW,2013-05-24 15:30:00,
2013-05-24 08:35:00,49.0,46.4,29.99,West,270,0.9,2.5,91,0.00,,,0.00,WUHU216HW,2013-05-24 15:35:00,
2013-05-24 08:40:00,49.3,46.8,29.99,SW,225,0.0,2.9,91,0.00,,,0.00,WUHU216HW,2013-05-24 15:40:00,
2013-05-24 08:45:00,49.7,47.2,29.99,North,0,0.9,2.9,91,0.00,,,0.00,WUHU216HW,2013-05-24 15:45:00,
2013-05-24 08:50:00,50.0,47.4,29.99,SSE,158,1.1,1.6,91,0.00,,,0.00,WUHU216HW,2013-05-24 15:50:00,
2013-05-24 08:55:00,50.4,47.8,29.99,SW,225,1.1,3.1,91,0.00,,,0.00,WUHU216HW,2013-05-24 15:55:00,
2013-05-24 09:00:00,50.8,48.2,29.99,SSE,158,0.7,3.1,91,0.00,,,0.00,WUHU216HW,2013-05-24 16:00:00,
2013-05-24 09:05:00,50.9,48.1,29.99,North,0,0.7,1.8,90,0.00,,,0.00,WUHU216HW,2013-05-24 16:05:00,
2013-05-24 09:10:00,51.3,48.4,29.99,West,270,1.1,1.8,90,0.00,,,0.00,WUHU216HW,2013-05-24 16:10:00,
2013-05-24 09:15:00,51.5,48.6,30.00,WSW,248,0.2,1.8,90,0.00,,,0.00,WUHU216HW,2013-05-24 16:15:00,
2013-05-24 09:20:00,51.8,49.0,29.99,WNW,293,1.1,1.8,90,0.00,,,0.00,WUHU216HW,2013-05-24 16:20:00,
2013-05-24 09:25:00,52.2,49.3,30.00,ESE,113,0.4,1.8,90,0.00,,,0.00,WUHU216HW,2013-05-24 16:25:00,
2013-05-24 09:30:00,52.4,48.6,29.99,NE,45,2.0,3.4,87,0.00,,,0.00,WUHU216HW,2013-05-24 16:30:00,
2013-05-24 09:35:00,51.8,48.1,30.00,NNE,23,1.8,4.3,87,0.00,,,0.00,WUHU216HW,2013-05-24 16:35:00,
2013-05-24 09:40:00,51.5,48.0,30.00,ENE,68,0.4,4.3,88,0.00,,,0.00,WUHU216HW,2013-05-24 16:40:00,
2013-05-24 09:45:00,51.5,48.0,30.00,NNE,23,1.6,2.5,88,0.00,,,0.00,WUHU216HW,2013-05-24 16:45:00,
2013-05-24 09:50:00,51.8,48.7,30.00,NNE,23,1.3,2.0,89,0.00,,,0.00,WUHU216HW,2013-05-24 16:50:00,
2013-05-24 09:55:00,52.4,48.9,30.00,NE,45,2.2,2.2,88,0.00,,,0.00,WUHU216HW,2013-05-24 16:55:00,
2013-05-24 10:00:00,52.9,49.4,30.00,North,0,0.7,3.6,88,0.00,,,0.00,WUHU216HW,2013-05-24 17:00:00,
2013-05-24 10:05:00,54.2,50.7,30.00,NNW,338,1.8,4.3,88,0.00,,,0.00,WUHU216HW,2013-05-24 17:05:00,
2013-05-24 10:10:00,55.4,51.6,30.00,East,90,1.8,4.3,87,0.00,,,0.00,WUHU216HW,2013-05-24 17:10:00,
2013-05-24 10:15:00,56.5,51.7,30.00,ENE,68,0.9,4.0,84,0.00,,,0.00,WUHU216HW,2013-05-24 17:15:00,
2013-05-24 10:20:00,57.1,51.9,30.00,NE,45,1.8,4.0,83,0.00,,,0.00,WUHU216HW,2013-05-24 17:20:00,
2013-05-24 10:25:00,57.6,52.5,30.00,ENE,68,0.4,2.9,83,0.01,,,0.01,WUHU216HW,2013-05-24 17:25:00,
2013-05-24 10:30:00,57.2,51.5,30.00,WSW,248,0.9,5.8,81,0.01,,,0.01,WUHU216HW,2013-05-24 17:30:00,
2013-05-24 10:35:00,56.5,50.8,30.00,SW,225,0.7,5.8,81,0.01,,,0.01,WUHU216HW,2013-05-24 17:35:00,
2013-05-24 10:40:00,56.9,51.1,30.00,WSW,248,1.1,3.4,81,0.01,,,0.01,WUHU216HW,2013-05-24 17:40:00,
2013-05-24 10:45:00,56.5,50.4,30.00,WSW,248,1.1,4.7,80,0.01,,,0.01,WUHU216HW,2013-05-24 17:45:00,
2013-05-24 10:50:00,56.3,50.2,30.00,SW,225,2.0,4.7,80,0.01,,,0.01,WUHU216HW,2013-05-24 17:50:00,
2013-05-24 10:55:00,55.3,48.8,30.00,WSW,248,1.3,4.0,79,0.01,,,0.01,WUHU216HW,2013-05-24 17:55:00,
2013-05-24 11:00:00,55.1,49.0,30.01,WSW,248,4.7,5.4,80,0.01,,,0.01,WUHU216HW,2013-05-24 18:00:00,
2013-05-24 11:05:00,54.9,48.9,30.01,SSW,203,2.2,5.4,80,0.01,,,0.01,WUHU216HW,2013-05-24 18:05:00,
2013-05-24 11:10:00,54.7,48.3,30.01,West,270,2.7,5.4,79,0.01,,,0.01,WUHU216HW,2013-05-24 18:10:00,
2013-05-24 11:15:00,54.4,48.0,30.01,WSW,248,3.8,5.4,79,0.01,,,0.01,WUHU216HW,2013-05-24 18:15:00,
2013-05-24 11:20:00,54.4,48.3,30.01,WSW,248,2.5,4.5,80,0.01,,,0.01,WUHU216HW,2013-05-24 18:20:00,
2013-05-24 11:25:00,54.5,48.5,30.01,WSW,248,0.4,4.5,80,0.00,,,0.01,WUHU216HW,2013-05-24 18:25:00,
2013-05-24 11:30:00,55.1,49.0,30.01,SW,225,4.0,4.0,80,0.00,,,0.01,WUHU216HW,2013-05-24 18:30:00,
2013-05-24 11:35:00,55.3,49.1,30.01,NNW,338,1.3,4.0,80,0.00,,,0.01,WUHU216HW,2013-05-24 18:35:00,
2013-05-24 11:40:00,55.3,49.1,30.01,SW,225,3.6,4.5,80,0.00,,,0.01,WUHU216HW,2013-05-24 18:40:00,
2013-05-24 11:45:00,55.1,49.0,30.01,West,270,1.6,4.5,80,0.00,,,0.01,WUHU216HW,2013-05-24 18:45:00,
2013-05-24 11:50:00,55.1,49.0,30.01,SSE,158,0.4,4.0,80,0.00,,,0.01,WUHU216HW,2013-05-24 18:50:00,
2013-05-24 11:55:00,55.1,48.7,30.01,WSW,248,0.2,2.7,79,0.00,,,0.01,WUHU216HW,2013-05-24 18:55:00,
2013-05-24 12:00:00,55.3,49.1,30.01,SE,135,0.9,2.5,80,0.00,,,0.01,WUHU216HW,2013-05-24 19:00:00,
2013-05-24 12:05:00,55.4,49.0,30.01,SE,135,0.9,2.5,79,0.00,,,0.01,WUHU216HW,2013-05-24 19:05:00,
2013-05-24 12:10:00,55.4,48.6,30.01,SE,135,0.4,1.3,78,0.00,,,0.01,WUHU216HW,2013-05-24 19:10:00,
2013-05-24 12:15:00,55.4,49.0,30.01,SE,135,0.4,1.3,79,0.00,,,0.01,WUHU216HW,2013-05-24 19:15:00,
2013-05-24 12:20:00,55.6,49.1,30.01,East,90,0.4,1.1,79,0.00,,,0.01,WUHU216HW,2013-05-24 19:20:00,
2013-05-24 12:25:00,55.8,49.3,30.01,NE,45,0.4,1.8,79,0.00,,,0.01,WUHU216HW,2013-05-24 19:25:00,
2013-05-24 12:30:00,56.3,48.8,30.01,NE,45,3.4,3.4,76,0.00,,,0.01,WUHU216HW,2013-05-24 19:30:00,
2013-05-24 12:35:00,56.0,48.2,30.01,ENE,68,0.4,3.8,75,0.00,,,0.01,WUHU216HW,2013-05-24 19:35:00,
2013-05-24 12:40:00,56.5,49.3,30.01,SE,135,0.9,3.8,77,0.00,,,0.01,WUHU216HW,2013-05-24 19:40:00,
2013-05-24 12:45:00,57.2,50.0,30.01,SW,225,2.5,2.9,77,0.00,,,0.01,WUHU216HW,2013-05-24 19:45:00,
2013-05-24 12:50:00,58.0,50.4,30.01,East,90,0.4,2.9,76,0.00,,,0.01,WUHU216HW,2013-05-24 19:50:00,
2013-05-24 12:55:00,58.3,50.8,30.01,ESE,113,0.9,3.4,76,0.00,,,0.01,WUHU216HW,2013-05-24 19:55:00,
2013-05-24 13:00:00,58.5,49.9,30.01,NE,45,0.7,3.6,73,0.00,,,0.01,WUHU216HW,2013-05-24 20:00:00,
2013-05-24 13:05:00,58.0,49.7,30.01,WSW,248,1.1,3.6,74,0.00,,,0.01,WUHU216HW,2013-05-24 20:05:00,
2013-05-24 13:10:00,58.3,49.7,30.00,ENE,68,1.8,2.7,73,0.00,,,0.01,WUHU216HW,2013-05-24 20:10:00,
2013-05-24 13:15:00,58.3,49.0,30.00,ENE,68,0.9,4.9,71,0.00,,,0.01,WUHU216HW,2013-05-24 20:15:00,
2013-05-24 13:20:00,58.1,49.1,30.00,NNE,23,1.6,4.9,72,0.00,,,0.01,WUHU216HW,2013-05-24 20:20:00,
2013-05-24 13:25:00,58.0,49.0,30.00,ESE,113,1.8,3.8,72,0.00,,,0.01,WUHU216HW,2013-05-24 20:25:00,
2013-05-24 13:30:00,57.6,49.3,30.00,NNE,23,2.2,2.9,74,0.00,,,0.01,WUHU216HW,2013-05-24 20:30:00,
2013-05-24 13:35:00,58.1,49.5,30.01,ENE,68,1.8,3.4,73,0.00,,,0.01,WUHU216HW,2013-05-24 20:35:00,
2013-05-24 13:40:00,58.0,49.3,30.00,ENE,68,1.8,5.1,73,0.00,,,0.01,WUHU216HW,2013-05-24 20:40:00,
2013-05-24 13:45:00,57.8,49.9,30.00,ESE,113,1.3,5.1,75,0.00,,,0.01,WUHU216HW,2013-05-24 20:45:00,
2013-05-24 13:50:00,58.0,48.6,30.00,WNW,293,1.8,3.4,71,0.00,,,0.01,WUHU216HW,2013-05-24 20:50:00,
2013-05-24 13:55:00,58.7,49.7,30.00,ENE,68,2.7,5.6,72,0.00,,,0.01,WUHU216HW,2013-05-24 20:55:00,
2013-05-24 14:00:00,59.0,49.7,30.00,North,0,2.5,5.6,71,0.00,,,0.01,WUHU216HW,2013-05-24 21:00:00,
2013-05-24 14:05:00,59.0,50.0,30.00,SW,225,1.1,4.0,72,0.00,,,0.01,WUHU216HW,2013-05-24 21:05:00,
2013-05-24 14:10:00,59.0,49.7,30.00,North,0,0.4,3.1,71,0.00,,,0.01,WUHU216HW,2013-05-24 21:10:00,
2013-05-24 14:15:00,59.9,50.9,30.00,North,0,0.9,3.8,72,0.00,,,0.01,WUHU216HW,2013-05-24 21:15:00,
2013-05-24 14:20:00,60.5,50.8,30.00,SW,225,1.8,3.8,70,0.00,,,0.01,WUHU216HW,2013-05-24 21:20:00,
2013-05-24 14:25:00,60.7,50.9,30.00,SSW,203,0.7,3.4,70,0.00,,,0.01,WUHU216HW,2013-05-24 21:25:00,
2013-05-24 14:30:00,60.5,50.8,30.00,SSE,158,0.4,4.7,70,0.00,,,0.01,WUHU216HW,2013-05-24 21:30:00,
2013-05-24 14:35:00,60.1,50.0,30.00,SSW,203,0.4,4.7,69,0.00,,,0.01,WUHU216HW,2013-05-24 21:35:00,
2013-05-24 14:40:00,59.8,49.6,30.00,East,90,0.7,1.8,69,0.00,,,0.01,WUHU216HW,2013-05-24 21:40:00,
2013-05-24 14:45:00,59.2,48.7,30.00,NNW,338,1.3,2.5,68,0.00,,,0.01,WUHU216HW,2013-05-24 21:45:00,
2013-05-24 14:50:00,59.2,49.1,30.00,SSW,203,0.9,2.5,69,0.00,,,0.01,WUHU216HW,2013-05-24 21:50:00,
2013-05-24 14:55:00,59.8,49.2,30.00,NE,45,1.1,5.6,68,0.00,,,0.01,WUHU216HW,2013-05-24 21:55:00,
2013-05-24 15:00:00,60.8,50.7,30.00,ENE,68,2.5,5.6,69,0.00,,,0.01,WUHU216HW,2013-05-24 22:00:00,
2013-05-24 15:05:00,61.2,51.0,30.00,ENE,68,1.1,3.1,69,0.00,,,0.01,WUHU216HW,2013-05-24 22:05:00,
2013-05-24 15:10:00,61.2,51.0,30.00,West,270,0.4,2.5,69,0.00,,,0.01,WUHU216HW,2013-05-24 22:10:00,
2013-05-24 15:15:00,61.7,49.4,30.00,NE,45,5.4,7.2,64,0.00,,,0.01,WUHU216HW,2013-05-24 22:15:00,
2013-05-24 15:20:00,61.9,50.1,30.00,ESE,113,2.5,7.2,65,0.00,,,0.01,WUHU216HW,2013-05-24 22:20:00,
2013-05-24 15:25:00,61.9,50.4,30.00,East,90,1.1,5.4,66,0.00,,,0.01,WUHU216HW,2013-05-24 22:25:00,
2013-05-24 15:30:00,62.6,51.1,30.00,SE,135,0.4,4.0,66,0.00,,,0.01,WUHU216HW,2013-05-24 22:30:00,
2013-05-24 15:35:00,62.6,50.7,30.00,SSW,203,1.1,3.6,65,0.00,,,0.01,WUHU216HW,2013-05-24 22:35:00,
2013-05-24 15:40:00,62.6,50.7,30.00,NW,315,0.7,4.7,65,0.00,,,0.01,WUHU216HW,2013-05-24 22:40:00,
2013-05-24 15:45:00,62.8,50.9,30.00,SE,135,0.2,4.7,65,0.00,,,0.01,WUHU216HW,2013-05-24 22:45:00,
2013-05-24 15:50:00,62.8,50.4,30.00,NNE,23,1.1,2.7,64,0.00,,,0.01,WUHU216HW,2013-05-24 22:50:00,
2013-05-24 15:55:00,62.3,50.3,30.00,North,0,0.4,3.4,65,0.00,,,0.01,WUHU216HW,2013-05-24 22:55:00,
2013-05-24 16:00:00,62.1,50.2,30.00,ENE,68,0.9,3.4,65,0.00,,,0.01,WUHU216HW,2013-05-24 23:00:00,
2013-05-24 16:05:00,61.6,48.1,30.00,NNW,338,1.8,3.4,61,0.00,,,0.01,WUHU216HW,2013-05-24 23:05:00,
2013-05-24 16:10:00,61.2,49.0,29.99,East,90,0.7,3.4,64,0.00,,,0.01,WUHU216HW,2013-05-24 23:10:00,
2013-05-24 16:15:00,61.2,49.4,30.00,ENE,68,0.7,3.4,65,0.00,,,0.01,WUHU216HW,2013-05-24 23:15:00,
2013-05-24 16:20:00,61.4,49.5,30.00,SW,225,1.3,4.7,65,0.00,,,0.01,WUHU216HW,2013-05-24 23:20:00,
2013-05-24 16:25:00,61.4,49.5,30.00,ESE,113,1.1,4.7,65,0.00,,,0.01,WUHU216HW,2013-05-24 23:25:00,
2013-05-24 16:30:00,61.6,49.7,30.00,NE,45,2.5,4.7,65,0.00,,,0.01,WUHU216HW,2013-05-24 23:30:00,
2013-05-24 16:35:00,61.7,49.1,29.99,SSE,158,1.3,2.9,63,0.00,,,0.01,WUHU216HW,2013-05-24 23:35:00,
2013-05-24 16:40:00,62.1,49.8,29.99,SW,225,2.0,4.3,64,0.00,,,0.01,WUHU216HW,2013-05-24 23:40:00,
2013-05-24 16:45:00,62.5,50.1,29.99,WSW,248,5.4,6.3,64,0.00,,,0.01,WUHU216HW,2013-05-24 23:45:00,
2013-05-24 16:50:00,62.5,49.7,29.99,West,270,4.5,6.3,63,0.00,,,0.01,WUHU216HW,2013-05-24 23:50:00,
2013-05-24 16:55:00,62.3,50.0,29.99,SW,225,4.7,5.4,64,0.00,,,0.01,WUHU216HW,2013-05-24 23:55:00,
2013-05-24 17:00:00,62.1,50.2,30.00,SW,225,2.2,4.7,65,0.00,,,0.01,WUHU216HW,2013-05-25 00:00:00,
2013-05-24 17:05:00,62.3,50.3,30.00,WSW,248,4.0,6.7,65,0.00,,,0.01,WUHU216HW,2013-05-25 00:05:00,
2013-05-24 17:10:00,62.6,50.7,30.00,South,180,2.2,6.9,65,0.00,,,0.01,WUHU216HW,2013-05-25 00:10:00,
2013-05-24 17:15:00,62.5,50.5,30.00,SSE,158,4.9,8.5,65,0.00,,,0.01,WUHU216HW,2013-05-25 00:15:00,
2013-05-24 17:20:00,61.9,50.1,30.00,NW,315,2.5,8.5,65,0.00,,,0.01,WUHU216HW,2013-05-25 00:20:00,
2013-05-24 17:25:00,61.6,49.7,30.00,WSW,248,1.8,5.6,65,0.00,,,0.01,WUHU216HW,2013-05-25 00:25:00,
2013-05-24 17:30:00,61.4,50.0,30.00,South,180,0.7,4.7,66,0.00,,,0.01,WUHU216HW,2013-05-25 00:30:00,
2013-05-24 17:35:00,61.2,49.4,30.00,WSW,248,1.8,4.7,65,0.00,,,0.01,WUHU216HW,2013-05-25 00:35:00,
2013-05-24 17:40:00,61.0,49.2,30.00,West,270,2.5,4.7,65,0.00,,,0.01,WUHU216HW,2013-05-25 00:40:00,
2013-05-24 17:45:00,61.0,49.2,30.00,West,270,2.2,6.5,65,0.00,,,0.01,WUHU216HW,2013-05-25 00:45:00,
2013-05-24 17:50:00,61.0,49.2,30.00,SE,135,0.9,6.5,65,0.00,,,0.01,WUHU216HW,2013-05-25 00:50:00,
2013-05-24 17:55:00,61.2,49.0,30.00,WSW,248,6.5,6.7,64,0.00,,,0.01,WUHU216HW,2013-05-25 00:55:00,
2013-05-24 18:00:00,61.2,49.0,30.00,WSW,248,2.2,7.4,64,0.00,,,0.01,WUHU216HW,2013-05-25 01:00:00,
2013-05-24 18:05:00,60.8,48.6,30.00,South,180,1.1,8.7,64,0.00,,,0.01,WUHU216HW,2013-05-25 01:05:00,
2013-05-24 18:10:00,60.8,48.6,30.00,WNW,293,2.2,8.7,64,0.00,,,0.01,WUHU216HW,2013-05-25 01:10:00,
2013-05-24 18:15:00,60.8,49.1,30.00,ESE,113,1.3,6.9,65,0.00,,,0.01,WUHU216HW,2013-05-25 01:15:00,
2013-05-24 18:20:00,60.5,48.7,30.00,SE,135,0.4,4.7,65,0.00,,,0.01,WUHU216HW,2013-05-25 01:20:00,
2013-05-24 18:25:00,60.1,47.9,30.01,ESE,113,1.8,4.7,64,0.00,,,0.01,WUHU216HW,2013-05-25 01:25:00,
2013-05-24 18:30:00,59.6,47.8,30.01,SE,135,1.8,4.7,65,0.00,,,0.01,WUHU216HW,2013-05-25 01:30:00,
2013-05-24 18:35:00,59.4,48.1,30.01,WSW,248,1.1,4.7,66,0.00,,,0.01,WUHU216HW,2013-05-25 01:35:00,
2013-05-24 18:40:00,58.9,47.9,30.01,SE,135,0.4,4.7,67,0.00,,,0.01,WUHU216HW,2013-05-25 01:40:00,
2013-05-24 18:45:00,58.7,48.2,30.01,SW,225,2.7,5.4,68,0.00,,,0.01,WUHU216HW,2013-05-25 01:45:00,
2013-05-24 18:50:00,58.3,47.8,30.01,SW,225,4.7,6.0,68,0.00,,,0.01,WUHU216HW,2013-05-25 01:50:00,
2013-05-24 18:55:00,58.1,48.0,30.01,SW,225,1.1,6.0,69,0.00,,,0.01,WUHU216HW,2013-05-25 01:55:00,
2013-05-24 19:00:00,58.0,47.9,30.01,WSW,248,1.1,5.8,69,0.00,,,0.01,WUHU216HW,2013-05-25 02:00:00,
2013-05-24 19:05:00,58.0,48.2,30.01,SW,225,0.0,3.1,70,0.00,,,0.01,WUHU216HW,2013-05-25 02:05:00,
2013-05-24 19:10:00,57.8,48.1,30.01,SW,225,3.4,3.4,70,0.00,,,0.01,WUHU216HW,2013-05-25 02:10:00,
2013-05-24 19:15:00,57.6,48.2,30.01,SW,225,0.9,3.6,71,0.00,,,0.01,WUHU216HW,2013-05-25 02:15:00,
2013-05-24 19:20:00,57.6,48.2,30.01,West,270,1.1,4.3,71,0.00,,,0.01,WUHU216HW,2013-05-25 02:20:00,
2013-05-24 19:25:00,57.4,48.4,30.01,SSE,158,2.2,4.3,72,0.00,,,0.01,WUHU216HW,2013-05-25 02:25:00,
2013-05-24 19:30:00,57.2,48.2,30.01,SSW,203,1.8,3.6,72,0.00,,,0.01,WUHU216HW,2013-05-25 02:30:00,
2013-05-24 19:35:00,57.1,48.4,30.01,SSW,203,0.4,4.0,73,0.00,,,0.01,WUHU216HW,2013-05-25 02:35:00,
2013-05-24 19:40:00,56.9,48.2,30.01,SW,225,2.9,4.3,73,0.00,,,0.01,WUHU216HW,2013-05-25 02:40:00,
2013-05-24 19:45:00,56.7,48.1,30.01,SSE,158,0.9,4.9,73,0.00,,,0.01,WUHU216HW,2013-05-25 02:45:00,
2013-05-24 19:50:00,56.5,48.0,30.02,WSW,248,2.2,5.1,73,0.00,,,0.01,WUHU216HW,2013-05-25 02:50:00,
2013-05-24 19:55:00,56.0,47.4,30.02,SSE,158,1.8,5.8,73,0.00,,,0.01,WUHU216HW,2013-05-25 02:55:00,
2013-05-24 20:00:00,55.8,47.6,30.02,SSE,158,0.2,5.8,74,0.00,,,0.01,WUHU216HW,2013-05-25 03:00:00,
2013-05-24 20:05:00,55.8,47.6,30.01,SW,225,0.2,5.4,74,0.00,,,0.01,WUHU216HW,2013-05-25 03:05:00,
2013-05-24 20:10:00,55.6,47.4,30.02,SSW,203,2.0,2.9,74,0.00,,,0.01,WUHU216HW,2013-05-25 03:10:00,
2013-05-24 20:15:00,55.4,47.6,30.02,WSW,248,1.1,2.5,75,0.00,,,0.01,WUHU216HW,2013-05-25 03:15:00,
2013-05-24 20:20:00,55.3,47.8,30.02,WSW,248,3.8,4.3,76,0.00,,,0.01,WUHU216HW,2013-05-25 03:20:00,
2013-05-24 20:25:00,55.1,47.6,30.02,WNW,293,0.4,4.3,76,0.00,,,0.01,WUHU216HW,2013-05-25 03:25:00,
2013-05-24 20:30:00,54.9,47.4,30.02,SSE,158,0.7,3.8,76,0.00,,,0.01,WUHU216HW,2013-05-25 03:30:00,
2013-05-24 20:35:00,54.5,47.4,30.02,SW,225,1.1,2.0,77,0.00,,,0.01,WUHU216HW,2013-05-25 03:35:00,
2013-05-24 20:40:00,54.4,47.3,30.02,SW,225,1.8,3.6,77,0.00,,,0.01,WUHU216HW,2013-05-25 03:40:00,
2013-05-24 20:45:00,54.4,47.6,30.02,SSW,203,0.4,3.6,78,0.00,,,0.01,WUHU216HW,2013-05-25 03:45:00,
2013-05-24 20:50:00,54.2,47.5,30.02,SW,225,1.8,3.1,78,0.00,,,0.01,WUHU216HW,2013-05-25 03:50:00,
2013-05-24 20:55:00,54.0,47.4,30.02,SW,225,1.1,3.1,78,0.00,,,0.01,WUHU216HW,2013-05-25 03:55:00,
2013-05-24 21:00:00,54.0,47.4,30.03,SW,225,2.0,4.0,78,0.00,,,0.01,WUHU216HW,2013-05-25 04:00:00,
2013-05-24 21:01:00,54.0,47.4,30.03,SSW,203,1.1,4.0,78,0.00,,,0.01,WUHU216HW,2013-05-25 04:01:00,
2013-05-24 21:06:00,53.6,47.0,30.03,SW,225,0.7,4.0,78,0.00,,,0.01,WUHU216HW,2013-05-25 04:06:00,
2013-05-24 21:11:00,53.6,47.3,30.03,SW,225,0.7,3.8,79,0.00,,,0.01,WUHU216HW,2013-05-25 04:11:00,
2013-05-24 21:16:00,53.5,47.2,30.03,South,180,2.2,3.8,79,0.00,,,0.01,WUHU216HW,2013-05-25 04:16:00,
2013-05-24 21:21:00,53.3,47.0,30.03,SSW,203,1.8,4.0,79,0.00,,,0.01,WUHU216HW,2013-05-25 04:21:00,
2013-05-24 21:26:00,53.1,47.2,30.03,SW,225,3.6,4.0,80,0.00,,,0.01,WUHU216HW,2013-05-25 04:26:00,
2013-05-24 21:31:00,53.1,47.2,30.03,WSW,248,1.3,3.8,80,0.00,,,0.01,WUHU216HW,2013-05-25 04:31:00,
2013-05-24 21:36:00,52.9,47.0,30.03,SW,225,1.6,3.8,80,0.00,,,0.01,WUHU216HW,2013-05-25 04:36:00,
2013-05-24 21:41:00,52.9,47.0,30.03,South,180,1.8,5.4,80,0.00,,,0.01,WUHU216HW,2013-05-25 04:41:00,
2013-05-24 21:46:00,52.9,47.3,30.03,SW,225,1.3,5.4,81,0.00,,,0.01,WUHU216HW,2013-05-25 04:46:00,
2013-05-24 21:51:00,52.7,46.8,30.04,SW,225,1.6,3.6,80,0.00,,,0.01,WUHU216HW,2013-05-25 04:51:00,
2013-05-24 21:56:00,52.7,47.1,30.04,SSW,203,1.1,5.8,81,0.00,,,0.01,WUHU216HW,2013-05-25 04:56:00,
2013-05-24 22:01:00,52.6,46.9,30.03,SSW,203,1.1,5.8,81,0.00,,,0.01,WUHU216HW,2013-05-25 05:01:00,
2013-05-24 22:06:00,52.6,46.9,30.04,South,180,2.0,4.7,81,0.00,,,0.01,WUHU216HW,2013-05-25 05:06:00,
2013-05-24 22:11:00,52.4,46.7,30.04,SW,225,2.0,6.3,81,0.00,,,0.01,WUHU216HW,2013-05-25 05:11:00,
2013-05-24 22:16:00,52.4,47.1,30.03,SSW,203,0.4,6.3,82,0.00,,,0.01,WUHU216HW,2013-05-25 05:16:00,
2013-05-24 22:21:00,52.2,46.9,30.03,West,270,2.9,4.0,82,0.00,,,0.01,WUHU216HW,2013-05-25 05:21:00,
2013-05-24 22:26:00,52.2,46.9,30.04,WNW,293,1.8,4.0,82,0.00,,,0.01,WUHU216HW,2013-05-25 05:26:00,
2013-05-24 22:31:00,52.0,46.7,30.03,SSW,203,2.7,4.0,82,0.00,,,0.01,WUHU216HW,2013-05-25 05:31:00,
2013-05-24 22:36:00,52.0,46.7,30.04,SSE,158,0.7,4.7,82,0.00,,,0.01,WUHU216HW,2013-05-25 05:36:00,
2013-05-24 22:41:00,51.8,46.5,30.03,WSW,248,2.5,4.7,82,0.00,,,0.01,WUHU216HW,2013-05-25 05:41:00,
2013-05-24 22:46:00,51.8,46.5,30.03,SW,225,1.3,4.0,82,0.00,,,0.01,WUHU216HW,2013-05-25 05:46:00,
2013-05-24 22:51:00,51.8,46.5,30.03,WSW,248,3.1,4.0,82,0.00,,,0.01,WUHU216HW,2013-05-25 05:51:00,
2013-05-24 22:56:00,51.8,46.5,30.03,SW,225,0.9,3.1,82,0.00,,,0.01,WUHU216HW,2013-05-25 05:56:00,
2013-05-24 23:01:00,51.7,46.4,30.03,SE,135,0.4,3.1,82,0.00,,,0.01,WUHU216HW,2013-05-25 06:01:00,
2013-05-24 23:06:00,51.5,46.2,30.03,SW,225,4.9,4.9,82,0.00,,,0.01,WUHU216HW,2013-05-25 06:06:00,
2013-05-24 23:11:00,51.5,46.4,30.03,South,180,0.0,4.9,83,0.00,,,0.01,WUHU216HW,2013-05-25 06:11:00,
2013-05-24 23:16:00,51.5,46.4,30.03,SW,225,1.1,4.9,83,0.00,,,0.01,WUHU216HW,2013-05-25 06:16:00,
2013-05-24 23:21:00,51.5,46.4,30.03,SW,225,0.4,1.1,83,0.00,,,0.01,WUHU216HW,2013-05-25 06:21:00,
2013-05-24 23:26:00,51.3,46.3,30.03,SW,225,2.0,2.2,83,0.00,,,0.01,WUHU216HW,2013-05-25 06:26:00,
2013-05-24 23:31:00,51.3,46.3,30.03,WSW,248,1.8,2.2,83,0.00,,,0.01,WUHU216HW,2013-05-25 06:31:00,
2013-05-24 23:36:00,51.3,46.3,30.02,SW,225,0.9,2.0,83,0.00,,,0.01,WUHU216HW,2013-05-25 06:36:00,
2013-05-24 23:41:00,51.1,46.1,30.02,South,180,2.0,2.0,83,0.00,,,0.01,WUHU216HW,2013-05-25 06:41:00,
2013-05-24 23:46:00,50.9,46.3,30.02,SSW,203,0.2,2.2,84,0.00,,,0.01,WUHU216HW,2013-05-25 06:46:00,
2013-05-24 23:51:00,50.9,46.3,30.02,WSW,248,0.0,2.2,84,0.00,,,0.01,WUHU216HW,2013-05-25 06:51:00,
2013-05-24 23:56:00,50.9,46.3,30.02,SW,225,0.4,0.9,84,0.00,,,0.01,WUHU216HW,2013-05-25 06:56:00,